Time;durP1;ratioP1;P1;durP2;ratioP2;P2;SDS_P1;SDS_P2;PMS_P1;PMS_P2;Temp;Humidity;BMP_temperature;BMP_pressure;BME280_temperature;BME280_humidity;BME280_pressure;Samples;Min_cycle;Max_cycle;Signal;HPM_P1;HPM_P2
2023/02/20 00:00:58;;;;;;;9.57;6.93;;;;;;;8.29;100.00;101479.47;5072659;28;20078;-79
2023/02/20 00:03:25;;;;;;;13.20;6.25;;;;;;;8.34;100.00;101487.31;5054915;28;20059;-79
2023/02/20 00:05:52;;;;;;;9.05;6.55;;;;;;;8.25;100.00;101483.06;5068288;28;20075;-80
2023/02/20 00:08:19;;;;;;;9.52;6.53;;;;;;;8.25;100.00;101484.81;5069647;28;20055;-81
2023/02/20 00:10:45;;;;;;;8.70;5.93;;;;;;;7.98;100.00;101441.41;5072297;28;20075;-81
2023/02/20 00:13:12;;;;;;;10.27;6.75;;;;;;;7.72;100.00;101404.97;5072277;28;20108;-80
2023/02/20 00:15:39;;;;;;;10.85;7.13;;;;;;;7.98;100.00;101451.94;5072883;28;20557;-80
2023/02/20 00:18:06;;;;;;;10.82;6.63;;;;;;;7.81;100.00;101428.53;5072289;28;20048;-79
2023/02/20 00:20:32;;;;;;;10.85;7.13;;;;;;;8.04;100.00;101479.06;5067907;28;20090;-78
2023/02/20 00:22:59;;;;;;;11.90;7.32;;;;;;;7.86;100.00;101441.63;5070088;28;20503;-80
2023/02/20 00:25:25;;;;;;;11.48;8.10;;;;;;;7.95;100.00;101475.75;5071331;28;20536;-79
2023/02/20 00:27:52;;;;;;;10.07;7.43;;;;;;;7.07;100.00;101343.81;5071946;28;20752;-80
2023/02/20 00:30:23;;;;;;;11.02;7.65;;;;;;;7.62;100.00;101449.09;5072256;28;20068;-78
2023/02/20 00:32:52;;;;;;;11.63;7.63;;;;;;;7.77;100.00;101469.03;5072909;28;20076;-80
2023/02/20 00:35:34;;;;;;;13.85;7.90;;;;;;;6.62;100.00;101284.91;5064808;28;20157;-81
2023/02/20 00:38:19;;;;;;;12.95;8.43;;;;;;;5.88;100.00;101158.06;5072407;28;20139;-82
2023/02/20 00:40:59;;;;;;;15.23;8.18;;;;;;;7.69;100.00;101471.81;5045467;28;20048;-80
2023/02/20 00:43:27;;;;;;;12.60;7.60;;;;;;;6.69;100.00;101297.06;5077076;28;20037;-79
2023/02/20 00:45:54;;;;;;;15.40;8.60;;;;;;;7.36;100.00;101407.41;5076334;28;20087;-80
2023/02/20 00:48:21;;;;;;;13.65;8.55;;;;;;;7.62;100.00;101458.78;5077445;28;20048;-80
2023/02/20 00:50:47;;;;;;;12.75;7.90;;;;;;;6.99;100.00;101366.78;5074840;28;20054;-79
2023/02/20 00:53:14;;;;;;;13.48;8.70;;;;;;;6.89;100.00;101341.50;5076556;28;20482;-80
2023/02/20 00:55:41;;;;;;;14.88;7.80;;;;;;;6.50;100.00;101282.47;5076613;28;20563;-79
2023/02/20 00:58:07;;;;;;;16.35;8.77;;;;;;;6.08;100.00;101220.91;5076345;28;20056;-80
2023/02/20 01:00:34;;;;;;;12.90;8.10;;;;;;;6.89;100.00;101376.59;5077086;28;20584;-79
2023/02/20 01:03:01;;;;;;;11.20;7.88;;;;;;;7.16;100.00;101421.81;5074725;28;20045;-79
2023/02/20 01:05:28;;;;;;;13.73;7.68;;;;;;;7.43;100.00;101466.13;5075969;28;20114;-79
2023/02/20 01:07:54;;;;;;;13.05;8.15;;;;;;;7.40;100.00;101461.75;5076045;28;20390;-80
2023/02/20 01:10:21;;;;;;;14.90;7.60;;;;;;;7.28;100.00;101438.25;5076226;28;20070;-79
2023/02/20 01:12:47;;;;;;;12.07;7.25;;;;;;;6.68;100.00;101346.22;5076213;28;20103;-80
2023/02/20 01:15:18;;;;;;;11.63;7.82;;;;;;;7.39;100.00;101469.72;5075598;28;20044;-79
2023/02/20 01:17:45;;;;;;;10.88;7.22;;;;;;;7.25;100.00;101447.97;5076266;28;20060;-80
2023/02/20 01:20:12;;;;;;;11.73;6.70;;;;;;;6.90;100.00;101375.72;5076447;28;20059;-79
2023/02/20 01:22:40;;;;;;;10.80;7.00;;;;;;;7.08;100.00;101403.50;5075491;28;20218;-79
2023/02/20 01:25:06;;;;;;;8.73;6.65;;;;;;;6.87;100.00;101351.19;5074969;28;20059;-80
2023/02/20 01:27:33;;;;;;;10.52;6.30;;;;;;;7.44;100.00;101448.53;5080717;28;20058;-79
2023/02/20 01:30:00;;;;;;;8.65;6.45;;;;;;;6.93;100.00;101357.19;5074123;28;20124;-79
2023/02/20 01:32:26;;;;;;;9.88;6.63;;;;;;;6.76;100.00;101322.41;5075366;28;20080;-80
2023/02/20 01:34:53;;;;;;;9.82;6.35;;;;;;;7.47;100.00;101430.91;5086884;28;20055;-79
2023/02/20 01:37:19;;;;;;;7.72;5.88;;;;;;;7.43;100.00;101415.19;5089387;28;20039;-81
2023/02/20 01:39:47;;;;;;;8.60;6.13;;;;;;;7.45;100.00;101418.66;5070542;28;20041;-80
2023/02/20 01:42:19;;;;;;;11.68;6.28;;;;;;;7.26;100.00;101382.09;5057913;28;20052;-80
2023/02/20 01:44:45;;;;;;;11.75;6.20;;;;;;;7.58;100.00;101451.81;5077402;28;20131;-80
2023/02/20 01:47:16;;;;;;;10.95;6.43;;;;;;;7.29;100.00;101397.84;5077388;28;20155;-79
2023/02/20 01:49:50;;;;;;;8.95;6.63;;;;;;;7.67;100.00;101439.34;5075678;28;20143;-80
2023/02/20 01:52:23;;;;;;;11.93;6.93;;;;;;;7.68;100.00;101435.81;5067401;28;20054;-80
2023/02/20 01:54:58;;;;;;;9.25;6.90;;;;;;;7.24;100.00;101375.13;5074967;28;20044;-80
2023/02/20 01:57:29;;;;;;;9.75;7.00;;;;;;;7.24;100.00;101368.06;5074368;28;20147;-79
2023/02/20 02:00:01;;;;;;;11.85;7.13;;;;;;;7.42;100.00;101400.25;5075008;28;20056;-81
2023/02/20 02:02:32;;;;;;;10.52;6.88;;;;;;;7.45;100.00;101387.03;5075088;28;20454;-79
2023/02/20 02:04:58;;;;;;;13.57;7.47;;;;;;;7.09;100.00;101336.72;5073194;28;20053;-79
2023/02/20 02:07:25;;;;;;;13.60;7.68;;;;;;;7.20;100.00;101353.25;5067673;28;20051;-80
2023/02/20 02:09:59;;;;;;;11.63;7.00;;;;;;;7.33;100.00;101389.00;5074771;28;20056;-79
2023/02/20 02:12:25;;;;;;;12.82;7.45;;;;;;;7.39;100.00;101410.00;5072630;28;20135;-80
2023/02/20 02:14:52;;;;;;;11.52;7.13;;;;;;;7.33;100.00;101415.34;5075826;28;20055;-80
2023/02/20 02:17:32;;;;;;;10.63;7.43;;;;;;;7.29;100.00;101396.97;5068499;28;20049;-80
2023/02/20 02:20:47;;;;;;;9.25;6.88;;;;;;;6.94;100.00;101329.09;5056803;28;20152;-79
2023/02/20 02:23:46;;;;;;;8.45;6.30;;;;;;;7.40;100.00;101390.63;5055707;28;20409;-79
2023/02/20 02:26:46;;;;;;;9.30;6.72;;;;;;;7.45;100.00;101394.94;5073390;28;20076;-79
2023/02/20 02:29:19;;;;;;;13.50;7.53;;;;;;;7.51;100.00;101392.22;5074206;28;20060;-79
2023/02/20 02:32:16;;;;;;;11.10;6.60;;;;;;;7.54;100.00;101394.78;5074052;28;20052;-80
2023/02/20 02:35:32;;;;;;;10.15;6.20;;;;;;;5.52;100.00;101071.03;5063885;28;20052;-82
2023/02/20 02:38:13;;;;;;;9.95;6.07;;;;;;;7.39;100.00;101395.94;5073570;28;20116;-80
2023/02/20 02:40:47;;;;;;;8.98;5.57;;;;;;;7.44;100.00;101398.47;5071399;28;20055;-80
2023/02/20 02:43:51;;;;;;;8.50;5.72;;;;;;;7.37;100.00;101406.50;5072245;28;20493;-80
2023/02/20 02:46:28;;;;;;;7.68;5.35;;;;;;;7.32;100.00;101383.75;5065108;28;20049;-80
2023/02/20 02:49:24;;;;;;;10.95;5.75;;;;;;;7.30;100.00;101377.66;5069942;28;20056;-80
2023/02/20 02:51:53;;;;;;;9.05;5.82;;;;;;;6.77;100.00;101292.53;5073069;28;20063;-80
2023/02/20 02:54:27;;;;;;;8.85;6.15;;;;;;;6.95;100.00;101338.75;5073153;28;20055;-79
2023/02/20 02:57:21;;;;;;;9.75;6.15;;;;;;;7.09;100.00;101385.91;5071571;28;20075;-80
2023/02/20 02:59:53;;;;;;;12.55;6.80;;;;;;;6.79;100.00;101353.94;5068606;28;20519;-79
2023/02/20 03:02:22;;;;;;;9.18;6.40;;;;;;;6.79;100.00;101353.94;5072806;28;20127;-79
2023/02/20 03:04:51;;;;;;;10.35;6.65;;;;;;;6.88;100.00;101379.25;5072387;28;20048;-79
2023/02/20 03:07:19;;;;;;;12.95;7.05;;;;;;;6.72;100.00;101341.78;5068013;28;20519;-80
2023/02/20 03:09:53;;;;;;;12.25;7.00;;;;;;;6.97;100.00;101392.25;5071795;28;20168;-79
2023/02/20 03:12:22;;;;;;;12.63;7.68;;;;;;;6.77;100.00;101352.25;5072979;28;20567;-79
2023/02/20 03:18:00;;;;;;;10.98;6.85;;;;;;;7.04;100.00;101396.53;5068761;28;20052;-80
2023/02/20 03:20:26;;;;;;;10.93;6.97;;;;;;;6.75;100.00;101335.59;5062336;28;20057;-80
2023/02/20 03:22:58;;;;;;;12.55;7.25;;;;;;;6.43;100.00;101275.59;5069297;28;20055;-80
2023/02/20 03:25:35;;;;;;;10.18;6.90;;;;;;;6.59;100.00;101295.50;5051945;28;20040;-80
2023/02/20 03:28:17;;;;;;;14.93;7.75;;;;;;;7.12;100.00;101394.63;5069816;28;20091;-80
2023/02/20 03:30:51;;;;;;;13.90;8.00;;;;;;;7.11;100.00;101398.16;5072063;28;20044;-80
2023/02/20 03:44:35;;;;;;;14.60;8.73;;;;;;;6.81;100.00;101367.06;5070223;28;20044;-82
2023/02/20 03:47:04;;;;;;;13.65;8.52;;;;;;;6.93;100.00;101393.19;5071505;28;20060;-79
2023/02/20 03:49:36;;;;;;;13.80;9.00;;;;;;;7.01;100.00;101401.84;5067736;28;20048;-81
2023/02/20 03:52:03;;;;;;;15.27;9.10;;;;;;;6.87;100.00;101388.03;5071608;28;20053;-79
2023/02/20 03:54:32;;;;;;;16.23;9.13;;;;;;;6.55;100.00;101352.56;5071861;28;20135;-79
2023/02/20 03:57:06;;;;;;;13.38;8.32;;;;;;;6.94;100.00;101401.06;5071660;28;20512;-81
2023/02/20 03:59:49;;;;;;;13.73;8.50;;;;;;;6.96;100.00;101412.44;5071692;28;20054;-80
2023/02/20 04:02:22;;;;;;;14.30;8.55;;;;;;;6.94;100.00;101416.88;5071015;28;20079;-80
2023/02/20 04:04:52;;;;;;;16.30;9.07;;;;;;;6.29;100.00;101289.84;5071209;28;20045;-79
2023/02/20 04:07:24;;;;;;;15.27;9.27;;;;;;;6.40;100.00;101305.44;5069205;28;20131;-79
2023/02/20 04:09:53;;;;;;;11.98;7.65;;;;;;;6.86;100.00;101370.50;5063659;28;20052;-78
2023/02/20 04:12:28;;;;;;;15.85;7.88;;;;;;;6.95;100.00;101391.41;5063598;28;20131;-79
2023/02/20 04:14:57;;;;;;;14.73;8.45;;;;;;;6.56;100.00;101317.47;5069462;28;20072;-80
2023/02/20 04:17:28;;;;;;;12.30;7.57;;;;;;;6.89;100.00;101381.88;5064113;28;20044;-79
2023/02/20 04:19:55;;;;;;;11.63;7.72;;;;;;;4.82;100.00;101026.56;5071561;28;20113;-81
2023/02/20 04:22:26;;;;;;;15.27;7.72;;;;;;;6.70;100.00;101351.44;5072484;28;20135;-80
2023/02/20 04:24:58;;;;;;;13.18;7.78;;;;;;;6.79;100.00;101389.91;5068860;28;20052;-80
2023/02/20 04:27:24;;;;;;;13.40;7.60;;;;;;;6.10;100.00;101298.88;5064681;28;20047;-79
2023/02/20 04:29:51;;;;;;;11.38;6.78;;;;;;;6.31;100.00;101326.59;5072146;28;20106;-78
2023/02/20 04:32:18;;;;;;;10.82;6.63;;;;;;;6.82;100.00;101398.63;5071954;28;20063;-78
2023/02/20 04:34:45;;;;;;;11.32;6.82;;;;;;;6.76;100.00;101403.16;5068208;28;20566;-80
2023/02/20 04:37:19;;;;;;;11.88;6.50;;;;;;;6.69;100.00;101402.34;5071930;28;20052;-81
2023/02/20 04:39:46;;;;;;;11.98;6.95;;;;;;;6.05;100.00;101308.56;5071924;28;20076;-80
2023/02/20 04:42:13;;;;;;;12.00;7.22;;;;;;;6.37;100.00;101378.28;5071668;28;20139;-79
2023/02/20 04:44:41;;;;;;;12.93;7.10;;;;;;;5.60;100.00;101231.19;5071446;28;20048;-80
2023/02/20 04:47:14;;;;;;;9.80;6.38;;;;;;;6.50;100.00;101370.16;5071482;28;20463;-80
2023/02/20 04:49:41;;;;;;;11.88;6.72;;;;;;;5.93;100.00;101288.59;5071453;28;20045;-81
2023/02/20 04:52:08;;;;;;;13.95;7.00;;;;;;;5.23;100.00;101176.50;5071723;28;20056;-81
2023/02/20 04:54:34;;;;;;;11.60;7.00;;;;;;;6.47;100.00;101396.53;5071918;28;20079;-82
2023/02/20 04:57:01;;;;;;;11.50;6.60;;;;;;;6.20;100.00;101347.81;5070524;28;20084;-81
2023/02/20 04:59:28;;;;;;;11.07;6.32;;;;;;;6.38;100.00;101382.63;5072088;28;20144;-81
2023/02/20 05:01:55;;;;;;;11.98;7.13;;;;;;;6.24;100.00;101353.91;5072219;28;20076;-83
2023/02/20 05:04:22;;;;;;;11.23;6.63;;;;;;;5.78;100.00;101293.16;5072082;28;20056;-80
2023/02/20 05:06:53;;;;;;;11.15;6.15;;;;;;;5.29;100.00;101213.19;5072476;28;20059;-79
2023/02/20 05:09:21;;;;;;;9.52;6.15;;;;;;;5.91;100.00;101336.81;5071636;28;20405;-81
2023/02/20 05:11:48;;;;;;;10.75;6.18;;;;;;;5.97;100.00;101342.88;5070926;28;20139;-80
2023/02/20 05:14:15;;;;;;;10.55;6.07;;;;;;;6.29;100.00;101384.53;5070963;28;20052;-79
2023/02/20 05:16:44;;;;;;;13.20;6.63;;;;;;;6.16;100.00;101359.25;5072438;28;20059;-80
2023/02/20 05:19:11;;;;;;;10.93;6.38;;;;;;;6.19;100.00;101366.25;5071947;28;20052;-79
2023/02/20 05:24:27;;;;;;;11.40;5.85;;;;;;;6.06;100.00;101351.53;5068001;28;20113;-80
2023/02/20 05:26:55;;;;;;;11.70;6.47;;;;;;;5.12;100.00;101219.53;5072193;28;20139;-79
2023/02/20 05:29:22;;;;;;;15.48;6.20;;;;;;;4.46;100.00;101127.53;5073705;28;20092;-79
2023/02/20 05:31:49;;;;;;;11.95;6.55;;;;;;;5.82;100.00;101343.03;5075682;28;20068;-80
2023/02/20 05:34:16;;;;;;;10.23;6.55;;;;;;;5.96;100.00;101377.94;5075440;28;20044;-80
2023/02/20 05:36:42;;;;;;;10.65;6.05;;;;;;;5.64;100.00;101340.63;5076393;28;20087;-79
2023/02/20 05:39:09;;;;;;;11.35;6.63;;;;;;;4.28;100.00;101117.22;5075421;28;20048;-79
2023/02/20 05:41:36;;;;;;;10.73;6.15;;;;;;;4.87;100.00;101203.19;5057575;28;20143;-80
2023/02/20 05:44:02;;;;;;;11.23;5.75;;;;;;;5.32;100.00;101298.09;5057288;28;20107;-80
2023/02/20 05:46:29;;;;;;;10.93;6.57;;;;;;;5.85;100.00;101386.78;5075398;28;20130;-80
2023/02/20 05:48:56;;;;;;;14.43;6.57;;;;;;;5.29;100.00;101285.84;5072940;28;20099;-80
2023/02/20 05:51:27;;;;;;;10.30;6.68;;;;;;;5.72;100.00;101357.16;5057347;28;20083;-79
2023/02/20 05:53:55;;;;;;;11.90;6.63;;;;;;;5.13;100.00;101263.28;5072726;28;20055;-80
2023/02/20 05:56:22;;;;;;;9.85;6.15;;;;;;;5.37;100.00;101293.63;5069695;28;20068;-81
2023/02/20 05:58:49;;;;;;;11.93;6.57;;;;;;;4.21;100.00;101096.34;5075080;28;20052;-81
2023/02/20 06:01:28;;;;;;;13.43;7.43;;;;;;;5.73;100.00;101353.66;5066754;28;20064;-78
2023/02/20 06:03:55;;;;;;;13.10;7.47;;;;;;;5.82;100.00;101356.19;5074470;28;20060;-80
2023/02/20 06:06:22;;;;;;;12.85;6.68;;;;;;;5.99;100.00;101396.28;5073801;28;20080;-81
2023/02/20 06:08:49;;;;;;;12.50;7.07;;;;;;;6.05;100.00;101389.22;5075212;28;20048;-81
2023/02/20 06:11:16;;;;;;;11.10;6.72;;;;;;;5.22;100.00;101236.91;5074197;28;20063;-80
2023/02/20 06:13:44;;;;;;;13.68;6.97;;;;;;;6.01;100.00;101383.13;5074120;28;20134;-80
2023/02/20 06:16:11;;;;;;;17.52;7.43;;;;;;;5.63;100.00;101316.09;5074629;28;20401;-79
2023/02/20 06:18:40;;;;;;;10.45;6.78;;;;;;;6.01;100.00;101374.34;5074807;28;20052;-80
2023/02/20 06:21:10;;;;;;;12.30;7.15;;;;;;;5.43;100.00;101278.69;5056831;28;20064;-80
2023/02/20 06:23:37;;;;;;;13.07;7.25;;;;;;;4.89;100.00;101173.41;5057287;28;20049;-79
2023/02/20 06:26:05;;;;;;;11.52;7.63;;;;;;;5.21;100.00;101240.41;5074024;28;20076;-79
2023/02/20 06:28:33;;;;;;;12.85;7.13;;;;;;;5.37;100.00;101247.22;5056342;28;20057;-79
2023/02/20 06:31:00;;;;;;;17.60;7.95;;;;;;;5.16;100.00;101235.25;5073360;28;20099;-81
2023/02/20 06:33:28;;;;;;;14.18;8.02;;;;;;;5.99;100.00;101363.84;5074095;28;20091;-80
2023/02/20 06:35:55;;;;;;;16.30;7.72;;;;;;;5.74;100.00;101322.97;5072789;28;20044;-79
2023/02/20 06:38:22;;;;;;;13.55;7.38;;;;;;;5.83;100.00;101334.22;5065627;28;20044;-80
2023/02/20 06:40:49;;;;;;;16.27;7.70;;;;;;;5.73;100.00;101316.84;5068558;28;20653;-80
2023/02/20 06:43:16;;;;;;;16.70;8.00;;;;;;;6.06;100.00;101372.56;5072121;28;20080;-78
2023/02/20 06:45:43;;;;;;;18.52;8.85;;;;;;;5.92;100.00;101357.81;5072997;28;20460;-80
2023/02/20 06:48:13;;;;;;;15.75;8.35;;;;;;;6.05;100.00;101383.97;5071447;28;20053;-80
2023/02/20 06:50:40;;;;;;;15.60;8.67;;;;;;;6.10;100.00;101376.88;5054151;28;20131;-78
2023/02/20 06:53:07;;;;;;;15.60;8.57;;;;;;;5.81;100.00;101338.66;5073253;28;20156;-79
2023/02/20 06:55:34;;;;;;;15.52;8.45;;;;;;;6.08;100.00;101376.03;5073529;28;20051;-79
2023/02/20 06:58:01;;;;;;;21.92;8.80;;;;;;;5.68;100.00;101346.69;5073024;28;20052;-79
2023/02/20 07:00:27;;;;;;;14.05;8.00;;;;;;;5.32;100.00;101287.59;5073178;28;20060;-79
2023/02/20 07:02:54;;;;;;;13.98;8.70;;;;;;;4.72;100.00;101175.34;5073989;28;20053;-79
2023/02/20 07:05:21;;;;;;;17.05;8.85;;;;;;;4.42;100.00;101099.59;5073554;28;20049;-79
2023/02/20 07:07:48;;;;;;;13.52;8.32;;;;;;;5.82;100.00;101339.53;5072538;28;20084;-79
2023/02/20 07:10:14;;;;;;;19.67;9.30;;;;;;;5.87;100.00;101338.56;5072572;28;20142;-80
2023/02/20 07:12:41;;;;;;;14.95;9.13;;;;;;;5.96;100.00;101369.19;5055412;28;20626;-80
2023/02/20 07:15:16;;;;;;;13.10;8.55;;;;;;;5.53;100.00;101277.69;5073406;28;20105;-79
2023/02/20 07:17:45;;;;;;;17.05;9.25;;;;;;;5.95;100.00;101347.28;5068920;28;20044;-80
2023/02/20 07:20:13;;;;;;;14.93;9.25;;;;;;;5.84;100.00;101330.72;5073013;28;20052;-80
2023/02/20 07:22:48;;;;;;;17.73;9.75;;;;;;;5.37;100.00;101254.25;5051494;28;20135;-79
2023/02/20 07:25:15;;;;;;;18.40;9.35;;;;;;;5.50;100.00;101269.84;5076231;28;20047;-80
2023/02/20 07:27:41;;;;;;;15.65;9.52;;;;;;;5.88;100.00;101345.59;5082312;28;20105;-80
2023/02/20 07:30:09;;;;;;;18.98;9.23;;;;;;;5.71;100.00;101320.38;5076147;28;20053;-81
2023/02/20 07:32:36;;;;;;;16.60;9.85;;;;;;;6.05;100.00;101350.66;5069333;28;20048;-80
2023/02/20 07:35:03;;;;;;;16.25;9.93;;;;;;;6.18;100.00;101373.25;5076988;28;20041;-79
2023/02/20 07:37:34;;;;;;;25.40;10.20;;;;;;;6.16;100.00;101372.41;5056088;28;20048;-81
2023/02/20 07:40:01;;;;;;;21.63;10.68;;;;;;;5.61;100.00;101277.59;5055540;28;20056;-82
2023/02/20 07:42:27;;;;;;;18.95;12.00;;;;;;;6.27;100.00;101349.47;5073016;28;20612;-81
2023/02/20 07:44:54;;;;;;;17.90;9.27;;;;;;;6.33;100.00;101353.75;5073609;28;20059;-81
2023/02/20 07:47:20;;;;;;;17.42;9.77;;;;;;;6.10;100.00;101283.09;5069526;28;20070;-79
2023/02/20 07:49:47;;;;;;;18.85;9.25;;;;;;;6.43;100.00;101347.50;5071976;28;20056;-80
2023/02/20 07:52:14;;;;;;;16.77;9.00;;;;;;;6.14;100.00;101302.34;5071917;28;20082;-79
2023/02/20 07:54:40;;;;;;;16.15;8.98;;;;;;;5.67;100.00;101216.22;5072925;28;20079;-80
2023/02/20 07:57:08;;;;;;;17.27;9.55;;;;;;;6.77;100.00;101352.25;5063500;28;20143;-81
2023/02/20 07:59:34;;;;;;;18.52;9.27;;;;;;;6.58;100.00;101292.00;5072901;28;20106;-80
2023/02/20 08:02:01;;;;;;;15.90;9.18;;;;;;;6.15;100.00;101219.91;5069630;28;20096;-81
2023/02/20 08:04:27;;;;;;;16.02;9.10;;;;;;;6.59;100.00;101272.69;5054449;28;20063;-81
2023/02/20 08:06:54;;;;;;;12.45;8.30;;;;;;;7.25;100.00;101343.47;5072066;28;20052;-81
2023/02/20 08:09:20;;;;;;;13.90;8.73;;;;;;;6.47;100.00;101232.53;5071016;28;20132;-80
2023/02/20 08:11:47;;;;;;;17.45;8.88;;;;;;;6.41;100.00;101199.31;5072728;28;20063;-80
2023/02/20 08:14:14;;;;;;;13.40;8.20;;;;;;;7.10;100.00;101314.78;5071529;28;20074;-82
2023/02/20 08:16:41;;;;;;;16.40;8.95;;;;;;;7.16;100.00;101309.41;5067530;28;20141;-80
2023/02/20 08:19:08;;;;;;;14.05;8.32;;;;;;;6.70;100.00;101204.06;5076512;28;20055;-78
2023/02/20 08:21:34;;;;;;;15.23;8.30;;;;;;;7.37;100.00;101338.00;5072145;28;20080;-79
2023/02/20 08:24:01;;;;;;;15.55;8.60;;;;;;;7.01;100.00;101285.97;5071914;28;20052;-80
2023/02/20 08:26:28;;;;;;;15.40;8.50;;;;;;;7.20;100.00;101323.41;5071844;28;20052;-80
2023/02/20 08:28:54;;;;;;;17.08;8.52;;;;;;;6.99;100.00;101238.59;5053600;28;20194;-80
2023/02/20 08:31:21;;;;;;;16.23;8.35;;;;;;;6.92;100.00;101188.75;5071409;28;20246;-80
2023/02/20 08:33:58;;;;;;;16.75;8.50;;;;;;;7.96;100.00;101322.75;5067475;28;20060;-81
2023/02/20 08:36:24;;;;;;;15.40;7.50;;;;;;;8.19;100.00;101313.44;5071741;28;20429;-81
2023/02/20 08:38:51;;;;;;;16.80;8.82;;;;;;;7.89;100.00;101257.81;5053541;28;20051;-80
2023/02/20 08:41:18;;;;;;;14.45;8.85;;;;;;;8.28;100.00;101310.59;5069967;28;20049;-79
2023/02/20 08:43:45;;;;;;;15.38;8.23;;;;;;;8.18;100.00;101311.72;5071518;28;20049;-78
2023/02/20 08:46:12;;;;;;;10.70;7.85;;;;;;;7.95;100.00;101310.44;5071003;28;20063;-82
2023/02/20 08:48:40;;;;;;;10.73;8.07;;;;;;;7.20;100.00;101189.06;5072578;28;20060;-81
2023/02/20 08:51:07;;;;;;;14.45;8.70;;;;;;;7.70;100.00;101256.50;5083770;28;20044;-81
2023/02/20 08:53:37;;;;;;;15.60;8.50;;;;;;;7.62;100.00;101210.97;5080459;28;20114;-81
2023/02/20 08:56:08;;;;;;;22.38;9.65;;;;;;;8.19;100.00;101294.97;5078832;28;20083;-80
2023/02/20 08:58:35;;;;;;;19.90;10.18;;;;;;;7.78;100.00;101249.28;5080486;28;20102;-80
2023/02/20 09:01:01;;;;;;;15.65;9.82;;;;;;;8.16;100.00;101313.53;5072485;28;20139;-79
2023/02/20 09:03:28;;;;;;;16.92;9.75;;;;;;;7.06;100.00;101114.72;5074910;28;20420;-80
2023/02/20 09:05:55;;;;;;;15.75;9.93;;;;;;;7.88;100.00;101245.53;5075665;28;20096;-81
2023/02/20 09:08:21;;;;;;;19.85;11.57;;;;;;;7.82;100.00;101210.53;5075971;28;20043;-81
2023/02/20 09:10:48;;;;;;;18.70;11.13;;;;;;;8.29;100.00;101243.72;5076077;28;20056;-79
2023/02/20 09:13:15;;;;;;;18.88;11.27;;;;;;;8.67;100.00;101261.28;5074962;28;20082;-80
2023/02/20 09:15:41;;;;;;;20.75;11.68;;;;;;;8.37;100.00;101175.81;5056924;28;20569;-79
2023/02/20 09:18:11;;;;;;;22.38;11.73;;;;;;;8.08;100.00;101119.34;5075136;28;20080;-79
2023/02/20 09:20:39;;;;;;;18.05;10.90;;;;;;;8.91;100.00;101230.75;5072245;28;20125;-80
2023/02/20 09:23:06;;;;;;;20.55;12.10;;;;;;;9.18;100.00;101245.84;5074712;28;20048;-79
2023/02/20 09:25:33;;;;;;;20.73;11.98;;;;;;;9.15;100.00;101230.06;5075374;28;20128;-79
2023/02/20 09:28:00;;;;;;;22.65;11.85;;;;;;;9.34;100.00;101294.72;5072129;28;20075;-80
2023/02/20 09:30:27;;;;;;;20.50;11.73;;;;;;;8.90;100.00;101229.88;5074196;28;20087;-81
2023/02/20 09:32:53;;;;;;;19.02;11.70;;;;;;;8.79;100.00;101235.44;5057520;28;20048;-80
2023/02/20 09:35:24;;;;;;;23.00;12.18;;;;;;;9.01;100.00;101261.28;5074801;28;20397;-81
2023/02/20 09:37:51;;;;;;;22.45;12.32;;;;;;;9.07;100.00;101288.41;5074921;28;20497;-81
2023/02/20 09:40:27;;;;;;;22.48;12.70;;;;;;;8.06;100.00;101117.66;5074545;28;20053;-81
2023/02/20 09:43:14;;;;;;;19.33;11.55;;;;;;;8.69;100.00;101209.28;5066297;28;20053;-80
2023/02/20 09:45:48;;;;;;;19.38;10.98;;;;;;;9.33;100.00;101303.56;5072279;28;20049;-81
2023/02/20 09:48:45;;;;;;;22.75;10.93;;;;;;;9.09;100.00;101254.88;5074742;28;20048;-80
2023/02/20 09:51:24;;;;;;;20.60;11.77;;;;;;;9.17;100.00;101265.22;5073112;28;20052;-79
2023/02/20 09:53:54;;;;;;;23.40;10.95;;;;;;;9.50;100.00;101296.03;5074987;28;20052;-80
2023/02/20 09:56:29;;;;;;;18.00;11.07;;;;;;;9.53;100.00;101259.84;5073905;28;20041;-79
2023/02/20 09:59:23;;;;;;;16.33;10.05;;;;;;;9.82;100.00;101286.28;5074767;28;20147;-81
2023/02/20 10:02:00;;;;;;;22.77;11.30;;;;;;;9.69;100.00;101226.75;5059555;28;20048;-80
2023/02/20 10:04:39;;;;;;;23.88;10.50;;;;;;;10.09;100.00;101264.28;5071770;28;20058;-80
2023/02/20 10:07:40;;;;;;;20.83;11.50;;;;;;;10.25;100.00;101275.28;5072900;28;20067;-80
2023/02/20 10:10:27;;;;;;;18.05;10.32;;;;;;;10.39;100.00;101283.66;5055531;28;20760;-80
2023/02/20 10:13:25;;;;;;;21.35;11.68;;;;;;;10.38;100.00;101283.72;5073516;28;20135;-79
2023/02/20 10:16:01;;;;;;;21.55;11.20;;;;;;;10.19;100.00;101273.72;5035357;28;20131;-81
2023/02/20 10:18:44;;;;;;;37.67;12.85;;;;;;;10.17;100.00;101294.03;5066331;28;20055;-80
2023/02/20 10:21:19;;;;;;;29.45;13.32;;;;;;;10.18;100.00;101279.03;5070544;28;20059;-80
2023/02/20 10:23:51;;;;;;;19.15;12.00;;;;;;;10.40;100.00;101284.50;5072037;28;20058;-81
2023/02/20 10:26:38;;;;;;;22.52;11.95;;;;;;;10.42;100.00;101277.41;5064513;28;20055;-80
2023/02/20 10:29:19;;;;;;;26.00;11.15;;;;;;;9.68;100.00;101128.03;5067804;28;20389;-79
2023/02/20 10:31:57;;;;;;;20.70;11.68;;;;;;;9.70;100.00;101133.25;5071923;28;20052;-80
2023/02/20 10:34:33;;;;;;;23.00;11.88;;;;;;;10.41;100.00;101260.63;5061759;28;20381;-79
2023/02/20 10:37:07;;;;;;;22.02;10.70;;;;;;;10.29;100.00;101247.81;5069062;28;20052;-80
2023/02/20 10:39:35;;;;;;;19.55;11.77;;;;;;;9.93;100.00;101191.56;5071982;28;20056;-82
2023/02/20 10:42:13;;;;;;;22.73;12.77;;;;;;;10.46;100.00;101255.19;5072759;28;20040;-80
2023/02/20 10:44:52;;;;;;;19.02;11.50;;;;;;;10.26;100.00;101191.44;5065562;28;20517;-79
2023/02/20 10:47:33;;;;;;;25.10;12.20;;;;;;;10.60;100.00;101242.38;5070787;28;20072;-80
2023/02/20 10:50:11;;;;;;;21.33;12.45;;;;;;;10.61;100.00;101241.44;5070652;28;20052;-80
2023/02/20 10:52:50;;;;;;;20.08;11.10;;;;;;;10.40;100.00;101190.06;5071923;28;20070;-79
2023/02/20 10:55:20;;;;;;;19.85;11.63;;;;;;;10.76;100.00;101232.97;5072266;28;20537;-80
2023/02/20 10:57:54;;;;;;;23.43;12.10;;;;;;;10.70;100.00;101212.03;5071329;28;20382;-82
2023/02/20 11:00:32;;;;;;;21.88;11.52;;;;;;;10.44;100.00;101146.69;5071704;28;20087;-79
2023/02/20 11:03:24;;;;;;;17.17;10.45;;;;;;;11.28;98.26;101211.72;5068936;28;20059;-80
2023/02/20 11:05:55;;;;;;;20.55;10.55;;;;;;;11.60;94.59;101214.03;5044083;28;20055;-79
2023/02/20 11:08:22;;;;;;;19.70;10.13;;;;;;;11.30;92.94;101172.75;5072185;28;20076;-78
2023/02/20 11:10:54;;;;;;;20.13;10.30;;;;;;;10.72;92.22;101069.75;5068702;28;20083;-80
2023/02/20 11:13:24;;;;;;;17.75;9.85;;;;;;;11.49;92.87;101182.59;5071902;28;20146;-79
2023/02/20 11:15:53;;;;;;;17.48;9.85;;;;;;;11.79;92.80;101193.88;5071769;28;20048;-80
2023/02/20 11:18:27;;;;;;;20.83;10.32;;;;;;;11.95;91.00;101196.78;5070665;28;20048;-79
2023/02/20 11:20:55;;;;;;;19.30;10.10;;;;;;;12.17;89.22;101187.00;5071699;28;20097;-81
2023/02/20 11:23:43;;;;;;;18.58;9.35;;;;;;;12.25;85.16;101150.38;5068749;28;20087;-79
2023/02/20 11:26:19;;;;;;;17.45;10.15;;;;;;;12.46;83.27;101180.47;5070163;28;20135;-79
2023/02/20 11:28:58;;;;;;;17.67;9.75;;;;;;;12.18;84.93;101140.06;5070964;28;20052;-80
2023/02/20 11:31:25;;;;;;;18.05;9.35;;;;;;;12.35;86.77;101184.50;5045722;28;20079;-82
2023/02/20 11:33:54;;;;;;;19.60;10.40;;;;;;;12.03;87.22;101109.72;5071436;28;20041;-80
2023/02/20 11:36:26;;;;;;;17.33;8.85;;;;;;;12.41;85.23;101157.72;5071799;28;20196;-79
2023/02/20 11:39:02;;;;;;;17.73;9.23;;;;;;;12.18;84.33;101092.28;5071693;28;20122;-80
2023/02/20 11:41:35;;;;;;;15.15;8.60;;;;;;;12.75;82.09;101159.78;5064542;28;20121;-81
2023/02/20 11:44:17;;;;;;;17.92;8.60;;;;;;;12.63;75.46;101110.66;5071632;28;20060;-79
2023/02/20 11:46:46;;;;;;;13.65;7.00;;;;;;;12.10;70.71;101033.34;5072251;28;20047;-80
2023/02/20 11:49:24;;;;;;;10.52;6.63;;;;;;;12.92;70.82;101152.75;5071319;28;20678;-79
2023/02/20 11:51:51;;;;;;;11.25;6.30;;;;;;;12.02;67.73;100991.19;5071010;28;20071;-80